createdAt,value
2022-12-17T00:00:45.835Z,88.56
2022-12-17T00:03:39.113Z,88.92
2022-12-17T00:06:24.628Z,88.94
2022-12-17T00:09:10.134Z,88.86
2022-12-17T00:11:56.087Z,88.90
2022-12-17T00:14:58.461Z,89.12
2022-12-17T00:17:46.215Z,88.99
2022-12-17T00:20:34.768Z,89.13
2022-12-17T00:23:22.543Z,89.11
2022-12-17T00:26:18.033Z,89.15
2022-12-17T00:29:06.377Z,88.91
2022-12-17T00:31:57.623Z,89.13
2022-12-17T00:34:43.360Z,89.06
2022-12-17T00:37:28.964Z,89.03
2022-12-17T00:40:14.622Z,89.01
2022-12-17T00:43:00.680Z,89.08
2022-12-17T00:45:46.325Z,88.98
2022-12-17T00:48:31.916Z,88.95
2022-12-17T00:51:17.285Z,88.98
2022-12-17T00:54:05.409Z,88.96
2022-12-17T00:56:53.789Z,89.28
2022-12-17T00:59:42.090Z,89.07
2022-12-17T01:02:30.017Z,89.03
2022-12-17T01:05:17.447Z,89.06
2022-12-17T01:08:03.105Z,89.04
2022-12-17T01:10:48.719Z,89.05
2022-12-17T01:13:35.870Z,89.21
2022-12-17T01:16:33.152Z,89.07
2022-12-17T01:22:50.873Z,88.85
2022-12-17T01:26:42.361Z,88.87
2022-12-17T01:29:58.665Z,88.93
2022-12-17T01:33:14.803Z,88.84
2022-12-17T01:36:21.467Z,88.97
2022-12-17T01:39:20.481Z,88.75
2022-12-17T01:42:19.853Z,88.89
2022-12-17T01:45:32.527Z,89.01
2022-12-17T01:48:36.879Z,88.99
2022-12-17T01:51:40.770Z,88.90
2022-12-17T01:54:27.769Z,88.76
2022-12-17T01:57:19.817Z,88.79
2022-12-17T02:00:19.167Z,88.64
2022-12-17T02:03:29.250Z,88.85
2022-12-17T02:06:51.522Z,88.71
2022-12-17T02:13:54.567Z,88.90
2022-12-17T02:17:21.789Z,88.71
2022-12-17T02:20:55.750Z,88.86
2022-12-17T02:24:14.382Z,88.69
2022-12-17T02:27:21.931Z,88.95
2022-12-17T02:30:53.848Z,88.96
2022-12-17T02:34:07.727Z,88.85
2022-12-17T02:36:58.171Z,89.04
2022-12-17T02:39:43.692Z,88.81
2022-12-17T02:42:29.427Z,89.07
2022-12-17T02:45:17.186Z,88.86
2022-12-17T02:48:03.160Z,89.05
2022-12-17T02:50:51.252Z,89.00
2022-12-17T02:53:38.716Z,89.04
2022-12-17T02:56:24.173Z,88.85
2022-12-17T02:59:09.707Z,89.13
2022-12-17T03:01:56.420Z,89.04
2022-12-17T03:04:44.427Z,89.02
2022-12-17T03:07:34.070Z,89.05
2022-12-17T03:10:54.577Z,89.05
2022-12-17T03:13:41.933Z,89.04
2022-12-17T03:16:37.706Z,88.92
2022-12-17T03:19:27.740Z,88.89
2022-12-17T03:22:16.134Z,89.10
2022-12-17T03:25:01.582Z,88.85
2022-12-17T03:27:52.330Z,88.86
2022-12-17T03:30:49.183Z,88.94
2022-12-17T03:33:35.548Z,89.06
2022-12-17T03:36:21.359Z,89.03
2022-12-17T03:39:11.251Z,89.00
2022-12-17T03:41:59.879Z,89.08
2022-12-17T03:44:47.340Z,89.14
2022-12-17T03:47:35.844Z,88.87
2022-12-17T03:50:40.544Z,89.06
2022-12-17T03:53:25.723Z,88.85
2022-12-17T04:03:48.735Z,88.96
2022-12-17T04:33:25.147Z,89.02
2022-12-17T04:36:53.351Z,88.88
2022-12-17T04:42:57.019Z,88.97
2022-12-17T04:50:31.783Z,89.06
2022-12-17T04:53:29.279Z,88.91
2022-12-17T04:59:45.752Z,88.90
2022-12-17T05:02:52.352Z,89.14
2022-12-17T05:05:42.202Z,88.88
2022-12-17T05:08:41.658Z,88.85
2022-12-17T05:11:47.737Z,88.81
2022-12-17T05:15:05.249Z,88.76
2022-12-17T05:18:13.997Z,89.02
2022-12-17T05:24:40.727Z,89.08
2022-12-17T05:28:21.385Z,89.05
2022-12-17T05:31:25.363Z,88.90
2022-12-17T05:34:15.301Z,88.84
2022-12-17T05:37:40.156Z,88.72
2022-12-17T05:40:59.332Z,88.85
2022-12-17T05:43:44.636Z,89.05
2022-12-17T05:53:48.520Z,88.92
2022-12-17T05:56:54.117Z,89.08
2022-12-17T06:04:06.150Z,89.09
2022-12-17T06:14:22.730Z,89.16
2022-12-17T06:25:24.388Z,89.16
2022-12-17T06:28:36.032Z,89.05
2022-12-17T06:31:21.422Z,89.05
2022-12-17T06:34:06.978Z,89.26
2022-12-17T06:36:53.593Z,89.13
2022-12-17T06:53:48.847Z,89.15
2022-12-17T06:56:33.916Z,89.22
2022-12-17T06:59:19.352Z,89.18
2022-12-17T07:02:04.823Z,89.29
2022-12-17T07:04:50.125Z,89.21
2022-12-17T07:07:35.524Z,89.42
2022-12-17T07:10:20.999Z,89.36
2022-12-17T07:13:06.424Z,89.46
2022-12-17T07:15:51.916Z,89.25
2022-12-17T07:18:42.554Z,89.39
2022-12-17T07:21:28.141Z,89.42
2022-12-17T07:24:16.265Z,89.18
2022-12-17T07:27:06.217Z,89.24
2022-12-17T07:30:05.664Z,89.14
2022-12-17T07:33:07.214Z,89.23
2022-12-17T07:35:57.240Z,89.28
2022-12-17T07:39:00.224Z,89.41
2022-12-17T07:42:07.836Z,89.39
2022-12-17T07:48:24.667Z,89.40
2022-12-17T07:51:22.070Z,89.32
2022-12-17T07:54:44.847Z,89.15
2022-12-17T08:05:13.290Z,89.19
2022-12-17T08:08:11.906Z,89.14
2022-12-17T08:11:26.485Z,89.10
2022-12-17T08:14:21.425Z,89.29
2022-12-17T08:17:58.807Z,88.98
2022-12-17T08:21:23.561Z,89.22
2022-12-17T08:24:49.167Z,89.26
2022-12-17T08:27:53.518Z,89.26
2022-12-17T08:31:38.229Z,89.13
2022-12-17T08:37:31.645Z,89.27
2022-12-17T08:40:17.125Z,89.32
2022-12-17T08:46:16.680Z,89.27
2022-12-17T08:49:37.501Z,89.18
2022-12-17T08:52:36.357Z,89.02
2022-12-17T08:55:23.308Z,89.26
2022-12-17T08:58:13.753Z,89.05
2022-12-17T09:01:15.794Z,89.33
2022-12-17T09:04:36.368Z,89.19
2022-12-17T09:11:37.076Z,89.09
2022-12-17T09:17:34.969Z,89.04
2022-12-17T09:20:38.905Z,89.21
2022-12-17T09:37:40.146Z,88.84
2022-12-17T09:44:07.167Z,88.72
2022-12-17T09:47:01.871Z,88.94
2022-12-17T09:49:58.606Z,88.92
2022-12-17T09:53:16.483Z,88.74
2022-12-17T09:56:29.593Z,88.76
2022-12-17T09:59:24.546Z,88.75
2022-12-17T10:05:54.402Z,88.39
2022-12-17T10:26:13.281Z,87.87
2022-12-17T10:29:05.847Z,87.69
2022-12-17T10:31:53.378Z,87.79
2022-12-17T10:35:49.193Z,87.63
2022-12-17T10:38:46.019Z,87.71
2022-12-17T10:41:49.589Z,87.61
2022-12-17T10:44:55.377Z,87.64
2022-12-17T10:47:43.815Z,87.86
2022-12-17T10:50:32.535Z,87.58
2022-12-17T10:53:18.881Z,87.49
2022-12-17T10:56:08.003Z,87.66
2022-12-17T10:58:55.700Z,87.72
2022-12-17T11:01:46.085Z,87.57
2022-12-17T11:04:51.829Z,87.38
2022-12-17T11:07:48.369Z,87.43
2022-12-17T11:10:55.693Z,87.55
2022-12-17T11:13:55.341Z,87.47
2022-12-17T11:16:44.287Z,87.13
2022-12-17T11:20:10.626Z,87.16
2022-12-17T11:23:08.380Z,87.26
2022-12-17T11:26:19.356Z,86.94
2022-12-17T11:29:16.632Z,87.01
2022-12-17T11:32:08.731Z,87.17
2022-12-17T11:35:27.585Z,86.99
2022-12-17T11:42:29.290Z,86.91
2022-12-17T11:48:50.850Z,87.03
2022-12-17T11:53:28.637Z,87.20
2022-12-17T11:56:46.878Z,87.05
2022-12-17T12:00:12.269Z,87.06
2022-12-17T12:03:55.376Z,86.96
2022-12-17T12:14:34.948Z,87.14
2022-12-17T12:18:09.348Z,87.20
2022-12-17T12:21:17.780Z,87.31
2022-12-17T12:25:17.018Z,87.12
2022-12-17T12:29:07.256Z,87.43
2022-12-17T12:36:29.158Z,87.15
2022-12-17T12:39:46.270Z,87.25
2022-12-17T12:43:14.490Z,87.42
2022-12-17T12:46:18.385Z,87.57
2022-12-17T12:49:32.526Z,87.28
2022-12-17T12:52:23.982Z,87.49
2022-12-17T12:55:20.962Z,87.50
2022-12-17T12:58:42.757Z,87.53
2022-12-17T13:01:35.653Z,87.61
2022-12-17T13:05:16.108Z,87.77
2022-12-17T13:08:06.059Z,87.83
2022-12-17T13:10:59.060Z,87.74
2022-12-17T13:16:58.836Z,87.59
2022-12-17T13:20:06.246Z,87.69
2022-12-17T13:22:56.580Z,87.80
2022-12-17T13:25:30.071Z,87.86
2022-12-17T13:28:09.453Z,87.65
2022-12-17T13:31:05.352Z,87.61
2022-12-17T13:34:00.731Z,87.64
2022-12-17T13:44:49.104Z,87.56
2022-12-17T13:47:50.986Z,87.29
2022-12-17T13:54:48.215Z,87.58
2022-12-17T14:01:02.137Z,87.42
2022-12-17T14:04:04.350Z,87.39
2022-12-17T14:07:24.042Z,87.36
2022-12-17T15:03:02.540Z,87.62
2022-12-17T15:05:43.176Z,87.58
2022-12-17T15:08:10.739Z,87.77
2022-12-17T15:23:35.302Z,87.84
2022-12-17T15:31:50.106Z,87.47
2022-12-17T15:42:27.121Z,87.95
2022-12-17T15:45:05.375Z,88.11
2022-12-17T15:47:36.317Z,87.98
2022-12-17T15:50:15.665Z,87.90
2022-12-17T16:04:16.839Z,88.08
2022-12-17T16:06:45.956Z,88.19
2022-12-17T16:09:13.456Z,88.22
2022-12-17T16:11:40.381Z,88.16
2022-12-17T16:14:07.075Z,87.97
2022-12-17T16:16:33.976Z,88.19
2022-12-17T16:19:02.365Z,88.01
2022-12-17T16:21:29.259Z,88.18
2022-12-17T16:23:56.980Z,88.06
2022-12-17T16:26:23.739Z,88.34
2022-12-17T16:28:50.659Z,88.33
2022-12-17T16:31:17.660Z,88.14
2022-12-17T16:33:45.569Z,88.18
2022-12-17T16:39:22.196Z,88.10
2022-12-17T16:41:49.273Z,88.18
2022-12-17T16:44:16.133Z,88.13
2022-12-17T16:46:44.413Z,88.12
2022-12-17T16:49:13.583Z,88.05
2022-12-17T16:51:41.312Z,87.95
2022-12-17T16:54:10.817Z,87.94
2022-12-17T16:56:40.270Z,88.00
2022-12-17T16:59:08.504Z,88.07
2022-12-17T17:01:37.128Z,88.07
2022-12-17T17:04:09.379Z,87.96
2022-12-17T17:06:40.885Z,88.06
2022-12-17T17:09:08.424Z,87.88
2022-12-17T17:11:35.571Z,88.03
2022-12-17T17:14:03.774Z,87.96
2022-12-17T17:16:30.979Z,88.03
2022-12-17T17:18:57.817Z,88.01
2022-12-17T17:21:36.230Z,88.06
2022-12-17T17:24:22.405Z,87.71
2022-12-17T17:26:53.249Z,87.74
2022-12-17T17:29:20.063Z,87.69
2022-12-17T17:34:36.890Z,87.55
2022-12-17T17:37:03.703Z,87.75
2022-12-17T17:39:33.312Z,87.51
2022-12-17T17:42:00.511Z,87.58
2022-12-17T17:44:28.747Z,87.65
2022-12-17T17:46:55.811Z,87.67
2022-12-17T17:49:22.609Z,87.56
2022-12-17T17:52:09.079Z,87.57
2022-12-17T17:54:39.930Z,87.71
2022-12-17T17:57:06.908Z,87.89
2022-12-17T17:59:34.516Z,87.51
2022-12-17T18:02:02.422Z,87.53
2022-12-17T18:04:32.023Z,87.63
2022-12-17T18:07:25.081Z,87.52
2022-12-17T18:09:47.849Z,87.69
2022-12-17T18:12:36.290Z,87.51
2022-12-17T18:15:18.999Z,87.83
2022-12-17T18:17:49.479Z,87.75
2022-12-17T18:20:17.261Z,87.73
2022-12-17T18:22:46.486Z,87.67
2022-12-17T18:25:18.439Z,87.60
2022-12-17T18:27:47.877Z,87.63
2022-12-17T18:30:16.520Z,87.74
2022-12-17T18:32:43.395Z,87.60
2022-12-17T18:35:10.244Z,87.69
2022-12-17T18:37:37.952Z,87.69
2022-12-17T18:40:08.888Z,87.55
2022-12-17T18:42:55.788Z,87.76
2022-12-17T18:45:23.288Z,87.60
2022-12-17T18:47:50.918Z,87.51
2022-12-17T18:50:17.857Z,87.83
2022-12-17T18:53:12.460Z,87.53
2022-12-17T18:55:47.877Z,87.73
2022-12-17T18:58:24.322Z,87.77
2022-12-17T19:01:01.698Z,87.60
2022-12-17T19:03:38.249Z,87.70
2022-12-17T19:09:12.800Z,87.49
2022-12-17T19:11:50.486Z,87.70
2022-12-17T19:14:27.347Z,87.44
2022-12-17T19:17:04.045Z,87.49
2022-12-17T19:19:30.897Z,87.68
2022-12-17T19:21:59.875Z,87.43
2022-12-17T19:28:33.333Z,87.47
2022-12-17T19:36:14.924Z,87.31
2022-12-17T19:39:50.202Z,87.29
2022-12-17T19:42:42.509Z,87.47
2022-12-17T19:45:20.198Z,87.31
2022-12-17T19:47:47.300Z,87.51
2022-12-17T19:50:20.285Z,87.34
2022-12-17T19:54:06.427Z,87.34
2022-12-17T19:56:31.369Z,87.54
2022-12-17T19:59:03.686Z,87.38
2022-12-17T20:01:50.003Z,87.47
2022-12-17T20:04:40.290Z,87.46
2022-12-17T20:07:23.270Z,87.41
2022-12-17T20:09:50.146Z,87.40
2022-12-17T20:12:16.963Z,87.44
2022-12-17T20:14:44.021Z,87.26
2022-12-17T20:17:10.789Z,87.41
2022-12-17T20:19:37.623Z,87.24
2022-12-17T20:22:05.625Z,87.41
2022-12-17T20:24:32.660Z,87.49
2022-12-17T20:27:00.141Z,87.26
2022-12-17T20:29:27.528Z,87.28
2022-12-17T20:31:55.570Z,87.48
2022-12-17T20:34:23.449Z,87.25
2022-12-17T20:36:51.264Z,87.25
2022-12-17T20:39:23.242Z,87.27
2022-12-17T20:41:53.118Z,87.42
2022-12-17T20:44:19.784Z,87.30
2022-12-17T20:46:48.061Z,87.28
2022-12-17T20:49:14.988Z,87.27
2022-12-17T20:51:42.109Z,87.25
2022-12-17T20:54:14.625Z,87.30
2022-12-17T20:56:41.436Z,87.06
2022-12-17T20:59:11.873Z,86.99
2022-12-17T21:01:38.871Z,87.27
2022-12-17T21:04:08.967Z,86.96
2022-12-17T21:06:44.258Z,87.09
2022-12-17T21:09:11.939Z,87.24
2022-12-17T21:11:40.317Z,86.96
2022-12-17T21:14:13.769Z,86.89
2022-12-17T21:16:50.128Z,86.98
2022-12-17T21:19:19.972Z,87.01
2022-12-17T21:21:49.454Z,87.07
2022-12-17T21:24:16.560Z,86.99
2022-12-17T21:26:44.860Z,86.89
2022-12-17T21:29:12.201Z,86.97
2022-12-17T21:31:41.220Z,86.99
2022-12-17T21:34:11.799Z,86.99
2022-12-17T21:36:38.889Z,86.79
2022-12-17T21:39:09.401Z,86.87
2022-12-17T21:41:38.571Z,87.02
2022-12-17T21:44:07.815Z,86.91
2022-12-17T21:46:37.814Z,86.79
2022-12-17T21:49:05.124Z,86.97
2022-12-17T21:51:35.247Z,86.96
2022-12-17T21:54:18.996Z,86.91
2022-12-17T21:56:47.182Z,86.76
2022-12-17T21:59:13.923Z,86.73
2022-12-17T22:01:40.849Z,86.63
2022-12-17T22:04:07.862Z,86.47
2022-12-17T22:06:45.244Z,86.79
2022-12-17T22:09:37.054Z,86.64
2022-12-17T22:12:27.574Z,86.58
2022-12-17T22:15:13.642Z,86.53
2022-12-17T22:17:47.975Z,86.63
2022-12-17T22:20:16.617Z,86.65
2022-12-17T22:22:44.180Z,86.41
2022-12-17T22:25:12.182Z,86.32
2022-12-17T22:27:40.623Z,86.48
2022-12-17T22:30:38.346Z,86.37
2022-12-17T22:33:47.513Z,86.24
2022-12-17T22:38:42.156Z,86.21
2022-12-17T22:41:49.848Z,86.31
2022-12-17T22:44:38.489Z,86.29
2022-12-17T22:44:54.207Z,86.09
2022-12-17T22:47:24.849Z,86.07
2022-12-17T22:49:56.155Z,85.98
2022-12-17T22:52:26.396Z,86.00
2022-12-17T22:54:53.843Z,86.20
2022-12-17T22:57:36.909Z,86.01
2022-12-17T23:00:10.058Z,86.05
2022-12-17T23:02:40.869Z,85.84
2022-12-17T23:05:16.601Z,86.03
2022-12-17T23:07:43.387Z,86.08
2022-12-17T23:10:10.319Z,86.02
2022-12-17T23:12:52.592Z,86.09
2022-12-17T23:15:39.818Z,86.08
2022-12-17T23:18:07.219Z,85.85
2022-12-17T23:20:35.632Z,85.97
2022-12-17T23:23:08.135Z,85.84
2022-12-17T23:25:35.694Z,85.89
2022-12-17T23:28:02.550Z,85.99
2022-12-17T23:30:31.125Z,85.85
2022-12-17T23:33:01.273Z,85.65
2022-12-17T23:35:28.141Z,85.82
2022-12-17T23:37:57.755Z,85.71
2022-12-17T23:40:25.392Z,85.79
2022-12-17T23:42:52.179Z,85.51
2022-12-17T23:45:18.894Z,85.54
2022-12-17T23:47:51.958Z,85.61
2022-12-17T23:50:21.635Z,85.70
2022-12-17T23:52:48.385Z,85.71
2022-12-17T23:55:15.236Z,85.63
2022-12-17T23:57:42.536Z,85.62
